Bow Gallant — 9HA3984 — position and weather

sailwx.info

Track history (hours):
 
Tides and Currents Weather Stations Pressure Air Temp Water Temp Dewpoint Dewpoint Depression Visibility Wind Speed Wind Dir Waves Ship Positions

Bow Gallant

Last reported at 2018-May-16 21:00 UTC. Time now 2018-May-25 05:00 UTC.
Position N 26°06' W 093°11'.
Warning: this ship's position is 8 days out of date.

Length 120 m; draft 7.8 m.

Type: Ship (hazmat cat A). MMSI: 256691000.

Date/timePositionNaut miles runAvg speedWind from/ knotsBaromVisibWave heightAir tempDewpointWater temp
2018-May-16 21:00N 26°06' W 093°11'713.2
2018-May-16 20:30N 26°10' W 093°17'1313.6
2018-May-16 19:30N 26°21' W 093°25'4813.9
2018-May-16 16:01N 27°02' W 093°54'014.2
2018-May-16 16:00N 27°02' W 093°55'2413.8
2018-May-16 14:16N 27°22' W 094°10'413.9
2018-May-16 13:59N 27°25' W 094°13'713.9
2018-May-16 13:30N 27°30' W 094°18'813.6
2018-May-16 12:57N 27°37' W 094°21'713.8
2018-May-16 12:28N 27°43' W 094°24'613.6
2018-May-16 12:00N 27°49' W 094°24'713.7
2018-May-16 11:30N 27°56' W 094°25'713.7
2018-May-16 10:58N 28°04' W 094°25'613.7
2018-May-16 10:30N 28°10' W 094°25'713.9
2018-May-16 10:00N 28°17' W 094°25'713.5
2018-May-16 09:30N 28°24' W 094°25'713.2
2018-May-16 09:00N 28°30' W 094°25'713.2
2018-May-16 08:30N 28°37' W 094°25'713.1
2018-May-16 08:00N 28°43' W 094°25'713.4
2018-May-16 07:30N 28°50' W 094°26'713.1
2018-May-16 07:00N 28°56' W 094°25'612.8
2018-May-16 06:30N 29°03' W 094°26'612.2
2018-May-16 06:00N 29°09' W 094°27'713.3
2018-May-16 05:30N 29°13' W 094°33'612.6
2018-May-16 05:00N 29°18' W 094°38'612.0
2018-May-16 04:30N 29°21' W 094°44'2 3.0
2018-May-16 04:00N 29°21' W 094°45'0 0.1
2018-May-16 03:29N 29°21' W 094°45'0 0.0
2018-May-16 02:59N 29°21' W 094°45'0 0.0
2018-May-16 02:23N 29°21' W 094°45'0 0.0
2018-May-16 01:44N 29°21' W 094°45'0 0.0
2018-May-16 01:29N 29°21' W 094°45'0 0.0
2018-May-16 00:59N 29°21' W 094°45'0 0.0
2018-May-16 00:29N 29°21' W 094°45'0 0.0
2018-May-15 17:44N 29°21' W 094°45'0 0.1
2018-May-15 17:29N 29°21' W 094°45'0 0.1
2018-May-15 15:38N 29°21' W 094°46'0 0.1
2018-May-15 15:26N 29°21' W 094°46'0 0.1
2018-May-15 14:59N 29°21' W 094°46'0 0.0
2018-May-15 14:29N 29°21' W 094°46'0 0.0
2018-May-15 13:59N 29°21' W 094°46'0 0.0
2018-May-15 13:29N 29°21' W 094°46'0 0.0
2018-May-15 12:59N 29°21' W 094°46'0 0.0
2018-May-15 12:29N 29°21' W 094°46'0 0.0
2018-May-15 11:59N 29°21' W 094°46'0 0.0
2018-May-15 11:29N 29°21' W 094°46'0 0.0
2018-May-15 10:56N 29°21' W 094°46'0 0.0
2018-May-15 10:29N 29°21' W 094°46'0 0.0
2018-May-15 09:59N 29°21' W 094°46'0 0.0
2018-May-15 09:29N 29°21' W 094°46'0 0.0
2018-May-15 08:56N 29°21' W 094°46'0 0.1
2018-May-15 08:30N 29°21' W 094°45'4 8.2
2018-May-15 08:00N 29°24' W 094°49'712.9
2018-May-15 07:29N 29°30' W 094°52'612.8
2018-May-15 07:00N 29°35' W 094°56'612.1
2018-May-15 06:30N 29°40' W 094°59'5 9.2
2018-May-15 06:00N 29°44' W 095°02'3 6.6
2018-May-15 05:30N 29°45' W 095°06'2 3.1
2018-May-15 04:56N 29°44' W 095°08'0 0.0
2018-May-15 04:17N 29°44' W 095°08'0 0.0
2018-May-14 00:41N 29°44' W 095°08'0 0.5
2018-May-14 00:30N 29°44' W 095°08'3 5.4
2018-May-14 00:00N 29°46' W 095°05'4 7.7
2018-May-13 23:29N 29°44' W 095°01'4 9.1
2018-May-13 22:59N 29°40' W 094°58'511.2
2018-May-13 22:30N 29°35' W 094°56'611.7
2018-May-13 22:00N 29°30' W 094°52'611.6
2018-May-13 21:30N 29°25' W 094°49'611.7
2018-May-13 21:00N 29°21' W 094°45'11 9.7
2018-May-13 19:53N 29°16' W 094°33'  
Track history (hours):
 
Tides and Currents Weather Stations Pressure Air Temp Water Temp Dewpoint Dewpoint Depression Visibility Wind Speed Wind Dir Waves Ship Positions

Bow Gallant

Last reported at 2018-May-16 21:00 UTC. Time now 2018-May-25 05:00 UTC.
Position N 26°06' W 093°11'.
Warning: this ship's position is 8 days out of date.

Length 120 m; draft 7.8 m.

Type: Ship (hazmat cat A). MMSI: 256691000.

Date/timePositionNaut miles runAvg speedWind from/ knotsBaromVisibWave heightAir tempDewpointWater temp
2018-May-16 21:00N 26°06' W 093°11'713.2
2018-May-16 20:30N 26°10' W 093°17'1313.6
2018-May-16 19:30N 26°21' W 093°25'4813.9
2018-May-16 16:01N 27°02' W 093°54'014.2
2018-May-16 16:00N 27°02' W 093°55'2413.8
2018-May-16 14:16N 27°22' W 094°10'413.9
2018-May-16 13:59N 27°25' W 094°13'713.9
2018-May-16 13:30N 27°30' W 094°18'813.6
2018-May-16 12:57N 27°37' W 094°21'713.8
2018-May-16 12:28N 27°43' W 094°24'613.6
2018-May-16 12:00N 27°49' W 094°24'713.7
2018-May-16 11:30N 27°56' W 094°25'713.7
2018-May-16 10:58N 28°04' W 094°25'613.7
2018-May-16 10:30N 28°10' W 094°25'713.9
2018-May-16 10:00N 28°17' W 094°25'713.5
2018-May-16 09:30N 28°24' W 094°25'713.2
2018-May-16 09:00N 28°30' W 094°25'713.2
2018-May-16 08:30N 28°37' W 094°25'713.1
2018-May-16 08:00N 28°43' W 094°25'713.4
2018-May-16 07:30N 28°50' W 094°26'713.1
2018-May-16 07:00N 28°56' W 094°25'612.8
2018-May-16 06:30N 29°03' W 094°26'612.2
2018-May-16 06:00N 29°09' W 094°27'713.3
2018-May-16 05:30N 29°13' W 094°33'612.6
2018-May-16 05:00N 29°18' W 094°38'612.0
2018-May-16 04:30N 29°21' W 094°44'2 3.0
2018-May-16 04:00N 29°21' W 094°45'0 0.1
2018-May-16 03:29N 29°21' W 094°45'0 0.0
2018-May-16 02:59N 29°21' W 094°45'0 0.0
2018-May-16 02:23N 29°21' W 094°45'0 0.0
2018-May-16 01:44N 29°21' W 094°45'0 0.0
2018-May-16 01:29N 29°21' W 094°45'0 0.0
2018-May-16 00:59N 29°21' W 094°45'0 0.0
2018-May-16 00:29N 29°21' W 094°45'0 0.0
2018-May-15 17:44N 29°21' W 094°45'0 0.1
2018-May-15 17:29N 29°21' W 094°45'0 0.1
2018-May-15 15:38N 29°21' W 094°46'0 0.1
2018-May-15 15:26N 29°21' W 094°46'0 0.1
2018-May-15 14:59N 29°21' W 094°46'0 0.0
2018-May-15 14:29N 29°21' W 094°46'0 0.0
2018-May-15 13:59N 29°21' W 094°46'0 0.0
2018-May-15 13:29N 29°21' W 094°46'0 0.0
2018-May-15 12:59N 29°21' W 094°46'0 0.0
2018-May-15 12:29N 29°21' W 094°46'0 0.0
2018-May-15 11:59N 29°21' W 094°46'0 0.0
2018-May-15 11:29N 29°21' W 094°46'0 0.0
2018-May-15 10:56N 29°21' W 094°46'0 0.0
2018-May-15 10:29N 29°21' W 094°46'0 0.0
2018-May-15 09:59N 29°21' W 094°46'0 0.0
2018-May-15 09:29N 29°21' W 094°46'0 0.0
2018-May-15 08:56N 29°21' W 094°46'0 0.1
2018-May-15 08:30N 29°21' W 094°45'4 8.2
2018-May-15 08:00N 29°24' W 094°49'712.9
2018-May-15 07:29N 29°30' W 094°52'612.8
2018-May-15 07:00N 29°35' W 094°56'612.1
2018-May-15 06:30N 29°40' W 094°59'5 9.2
2018-May-15 06:00N 29°44' W 095°02'3 6.6
2018-May-15 05:30N 29°45' W 095°06'2 3.1
2018-May-15 04:56N 29°44' W 095°08'0 0.0
2018-May-15 04:17N 29°44' W 095°08'0 0.0
2018-May-14 00:41N 29°44' W 095°08'0 0.5
2018-May-14 00:30N 29°44' W 095°08'3 5.4
2018-May-14 00:00N 29°46' W 095°05'4 7.7
2018-May-13 23:29N 29°44' W 095°01'4 9.1
2018-May-13 22:59N 29°40' W 094°58'511.2
2018-May-13 22:30N 29°35' W 094°56'611.7
2018-May-13 22:00N 29°30' W 094°52'611.6
2018-May-13 21:30N 29°25' W 094°49'611.7
2018-May-13 21:00N 29°21' W 094°45'11 9.7
2018-May-13 19:53N 29°16' W 094°33'  

Dump ship's entire track history